createdAt,value
2018-07-22T00:00:50.649Z,18.54
2018-07-22T00:03:19.741Z,18.56
2018-07-22T00:05:48.825Z,18.57
2018-07-22T00:08:17.997Z,18.58
2018-07-22T00:10:47.104Z,18.56
2018-07-22T00:13:16.183Z,18.56
2018-07-22T00:15:46.055Z,18.58
2018-07-22T00:18:15.110Z,18.51
2018-07-22T00:20:45.062Z,18.52
2018-07-22T00:23:14.898Z,18.49
2018-07-22T00:25:44.948Z,18.53
2018-07-22T00:28:14.862Z,18.52
2018-07-22T00:30:45.034Z,18.54
2018-07-22T00:33:15.049Z,18.55
2018-07-22T00:35:45.368Z,18.55
2018-07-22T00:38:14.910Z,18.52
2018-07-22T00:40:45.159Z,18.50
2018-07-22T00:43:14.989Z,18.49
2018-07-22T00:45:45.467Z,18.46
2018-07-22T00:48:14.952Z,18.47
2018-07-22T00:50:44.032Z,18.47
2018-07-22T00:53:13.169Z,18.47
2018-07-22T00:55:42.644Z,18.50
2018-07-22T00:58:11.756Z,18.43
2018-07-22T01:00:41.154Z,18.42
2018-07-22T01:03:10.346Z,18.41
2018-07-22T01:05:39.381Z,18.41
2018-07-22T01:08:08.558Z,18.42
2018-07-22T01:10:37.653Z,18.45
2018-07-22T01:13:07.195Z,18.43
2018-07-22T01:15:36.515Z,18.40
2018-07-22T01:18:05.901Z,18.41
2018-07-22T01:20:34.982Z,18.42
2018-07-22T01:23:04.282Z,18.42
2018-07-22T01:25:33.492Z,18.43
2018-07-22T01:28:02.556Z,18.43
2018-07-22T01:30:32.073Z,18.41
2018-07-22T01:33:01.147Z,18.40
2018-07-22T01:35:30.279Z,18.40
2018-07-22T01:37:59.331Z,18.40
2018-07-22T01:40:28.632Z,18.39
2018-07-22T01:42:57.972Z,18.37
2018-07-22T01:45:27.837Z,18.38
2018-07-22T01:47:57.343Z,18.37
2018-07-22T01:50:26.473Z,18.38
2018-07-22T01:52:55.546Z,18.37
2018-07-22T01:55:24.630Z,18.36
2018-07-22T01:57:54.217Z,18.23
2018-07-22T02:00:23.310Z,18.23
2018-07-22T02:02:52.809Z,18.23
2018-07-22T02:05:21.902Z,18.20
2018-07-22T02:07:51.510Z,18.21
2018-07-22T02:10:20.933Z,18.16
2018-07-22T02:12:50.432Z,18.07
2018-07-22T02:15:19.529Z,18.03
2018-07-22T02:17:48.581Z,18.02
2018-07-22T02:20:17.684Z,18.08
2018-07-22T02:22:47.598Z,18.07
2018-07-22T02:25:16.945Z,18.09
2018-07-22T02:27:46.214Z,18.09
2018-07-22T02:30:16.528Z,18.08
2018-07-22T02:32:46.092Z,18.05
2018-07-22T02:35:16.177Z,18.04
2018-07-22T02:37:46.204Z,18.00
2018-07-22T02:40:16.598Z,17.96
2018-07-22T02:42:46.162Z,17.97
2018-07-22T02:45:16.418Z,17.99
2018-07-22T02:47:46.420Z,17.96
2018-07-22T02:50:16.540Z,17.97
2018-07-22T02:52:46.315Z,17.97
2018-07-22T02:55:17.742Z,18.00
2018-07-22T02:57:46.874Z,17.97
2018-07-22T03:00:16.659Z,17.94
2018-07-22T03:02:46.562Z,17.91
2018-07-22T03:05:16.510Z,17.89
2018-07-22T03:07:46.508Z,17.88
2018-07-22T03:10:16.450Z,17.87
2018-07-22T03:12:46.499Z,17.84
2018-07-22T03:15:15.853Z,17.83
2018-07-22T03:17:44.923Z,17.77
2018-07-22T03:20:13.996Z,17.74
2018-07-22T03:22:43.032Z,17.71
2018-07-22T03:25:12.234Z,17.69
2018-07-22T03:27:41.614Z,17.72
2018-07-22T03:30:10.914Z,17.66
2018-07-22T03:32:39.969Z,17.64
2018-07-22T03:35:09.063Z,17.59
2018-07-22T03:37:38.084Z,17.58
2018-07-22T03:40:07.274Z,17.56
2018-07-22T03:42:36.351Z,17.57
2018-07-22T03:45:05.852Z,17.58
2018-07-22T03:47:35.068Z,17.57
2018-07-22T03:50:05.983Z,17.55
2018-07-22T03:52:35.153Z,17.55
2018-07-22T03:55:04.937Z,17.54
2018-07-22T03:57:34.180Z,17.58
2018-07-22T04:00:04.119Z,17.54
2018-07-22T04:02:33.177Z,17.51
2018-07-22T04:05:02.293Z,17.49
2018-07-22T04:07:31.798Z,17.49
2018-07-22T04:10:01.299Z,17.52
2018-07-22T04:12:30.380Z,17.52
2018-07-22T04:14:59.905Z,17.54
2018-07-22T04:17:28.980Z,17.60
2018-07-22T04:19:58.255Z,17.62
2018-07-22T04:22:27.597Z,17.65
2018-07-22T04:24:56.937Z,17.67
2018-07-22T04:27:26.151Z,17.66
2018-07-22T04:29:55.231Z,17.68
2018-07-22T04:32:24.415Z,17.68
2018-07-22T04:34:53.543Z,17.70
2018-07-22T04:37:22.609Z,17.66
2018-07-22T04:39:51.693Z,17.67
2018-07-22T04:42:20.761Z,17.63
2018-07-22T04:44:50.045Z,17.64
2018-07-22T04:47:19.162Z,17.67
2018-07-22T04:49:48.468Z,17.68
2018-07-22T04:52:17.647Z,17.71
2018-07-22T04:54:47.779Z,17.71
2018-07-22T04:57:17.859Z,17.73
2018-07-22T04:59:48.149Z,17.74
2018-07-22T05:02:18.074Z,17.79
2018-07-22T05:04:48.007Z,17.82
2018-07-22T05:07:17.952Z,17.83
2018-07-22T05:09:47.839Z,17.84
2018-07-22T05:12:18.065Z,17.88
2018-07-22T05:14:48.113Z,17.90
2018-07-22T05:17:18.301Z,17.87
2018-07-22T05:19:47.903Z,17.91
2018-07-22T05:41:37.111Z,17.89
2018-07-22T05:44:06.873Z,17.78
2018-07-22T05:46:36.224Z,17.74
2018-07-22T05:49:05.823Z,17.69
2018-07-22T05:51:35.049Z,17.65
2018-07-22T05:54:04.252Z,17.64
2018-07-22T05:56:33.311Z,17.67
2018-07-22T05:59:02.396Z,17.69
2018-07-22T06:01:31.800Z,17.72
2018-07-22T06:04:00.928Z,17.72
2018-07-22T06:06:30.396Z,17.73
2018-07-22T06:08:59.484Z,17.71
2018-07-22T06:11:28.602Z,17.68
2018-07-22T06:13:57.759Z,17.72
2018-07-22T06:16:27.212Z,17.74
2018-07-22T06:18:56.651Z,17.80
2018-07-22T06:21:25.794Z,17.85
2018-07-22T06:23:54.972Z,17.85
2018-07-22T06:26:24.051Z,17.89
2018-07-22T06:28:54.488Z,17.91
2018-07-22T06:31:23.841Z,17.93
2018-07-22T06:33:52.947Z,17.97
2018-07-22T06:36:22.135Z,18.00
2018-07-22T06:38:51.560Z,18.03
2018-07-22T06:41:21.300Z,18.07
2018-07-22T06:43:50.414Z,18.05
2018-07-22T06:46:20.075Z,18.03
2018-07-22T06:48:49.987Z,18.05
2018-07-22T06:51:20.264Z,18.05
2018-07-22T06:53:50.166Z,18.05
2018-07-22T06:56:20.066Z,18.03
2018-07-22T06:58:50.060Z,17.94
2018-07-22T07:01:19.990Z,17.94
2018-07-22T07:03:50.385Z,17.95
2018-07-22T07:06:19.922Z,18.00
2018-07-22T07:08:49.977Z,18.06
2018-07-22T07:11:20.101Z,18.10
2018-07-22T07:13:50.037Z,18.12
2018-07-22T07:16:51.856Z,18.19
2018-07-22T07:19:20.923Z,18.22
2018-07-22T07:21:50.104Z,18.26
2018-07-22T07:24:20.377Z,18.24
2018-07-22T07:46:09.842Z,18.29
2018-07-22T07:48:38.996Z,18.65
2018-07-22T07:51:08.498Z,18.67
2018-07-22T07:53:37.922Z,18.69
2018-07-22T07:56:07.477Z,18.69
2018-07-22T07:58:36.566Z,18.68
2018-07-22T08:01:05.684Z,18.72
2018-07-22T08:03:34.789Z,18.80
2018-07-22T08:06:03.954Z,18.86
2018-07-22T08:08:33.055Z,18.87
2018-07-22T08:11:02.168Z,18.87
2018-07-22T08:13:31.298Z,18.84
2018-07-22T08:16:00.690Z,18.81
2018-07-22T08:18:30.106Z,18.80
2018-07-22T08:20:59.208Z,18.83
2018-07-22T08:23:28.342Z,18.87
2018-07-22T08:25:57.728Z,18.93
2018-07-22T08:28:37.926Z,18.89
2018-07-22T08:31:07.385Z,18.95
2018-07-22T08:33:36.476Z,18.97
2018-07-22T08:36:05.768Z,18.95
2018-07-22T08:38:35.264Z,18.95
2018-07-22T08:41:04.836Z,19.01
2018-07-22T08:43:33.862Z,19.08
2018-07-22T08:46:02.991Z,19.18
2018-07-22T08:48:32.463Z,19.20
2018-07-22T08:51:02.141Z,19.23
2018-07-22T08:53:31.921Z,19.27
2018-07-22T08:56:02.204Z,19.29
2018-07-22T08:58:31.337Z,19.27
2018-07-22T09:01:00.404Z,19.31
2018-07-22T09:03:29.468Z,19.36
2018-07-22T09:05:58.595Z,19.38
2018-07-22T09:08:27.711Z,19.37
2018-07-22T09:10:57.283Z,19.40
2018-07-22T09:13:26.711Z,19.48
2018-07-22T09:15:56.069Z,19.55
2018-07-22T09:18:25.399Z,19.61
2018-07-22T09:20:54.497Z,19.63
2018-07-22T09:23:24.016Z,19.56
2018-07-22T09:25:53.426Z,19.55
2018-07-22T09:28:22.562Z,19.59
2018-07-22T09:30:52.513Z,19.59
2018-07-22T09:33:22.732Z,19.56
2018-07-22T09:35:52.441Z,19.55
2018-07-22T09:38:22.473Z,19.55
2018-07-22T09:40:52.835Z,19.55
2018-07-22T09:43:22.923Z,19.50
2018-07-22T09:45:52.514Z,19.49
2018-07-22T09:48:22.543Z,19.37
2018-07-22T09:50:52.653Z,19.26
2018-07-22T09:53:22.921Z,19.22
2018-07-22T09:55:52.667Z,19.18
2018-07-22T09:58:22.796Z,19.17
2018-07-22T10:00:53.739Z,19.12
2018-07-22T10:03:24.869Z,19.12
2018-07-22T10:05:54.117Z,19.12
2018-07-22T10:08:23.231Z,19.16
2018-07-22T10:10:53.169Z,19.20
2018-07-22T10:13:23.144Z,19.22
2018-07-22T10:15:53.327Z,19.25
2018-07-22T10:18:23.350Z,19.35
2018-07-22T10:20:53.039Z,19.40
2018-07-22T10:23:23.124Z,19.45
2018-07-22T10:25:53.207Z,19.52
2018-07-22T10:28:23.308Z,19.60
2018-07-22T10:30:53.227Z,19.62
2018-07-22T10:33:23.678Z,19.62
2018-07-22T10:35:53.259Z,19.66
2018-07-22T10:38:23.957Z,19.63
2018-07-22T10:40:53.414Z,19.66
2018-07-22T10:43:23.304Z,19.74
2018-07-22T10:45:53.550Z,19.81
2018-07-22T10:48:23.273Z,19.84
2018-07-22T10:50:53.489Z,19.81
2018-07-22T10:53:23.798Z,19.82
2018-07-22T10:55:53.608Z,19.76
2018-07-22T10:58:24.182Z,19.74
2018-07-22T11:00:53.431Z,19.70
2018-07-22T11:03:23.522Z,19.63
2018-07-22T11:05:53.810Z,19.60
2018-07-22T11:08:23.689Z,19.57
2018-07-22T11:10:53.435Z,19.60
2018-07-22T11:13:23.568Z,19.69
2018-07-22T11:15:53.483Z,19.80
2018-07-22T11:18:23.774Z,19.86
2018-07-22T11:20:53.528Z,19.95
2018-07-22T11:23:23.925Z,20.00
2018-07-22T11:25:54.007Z,20.12
2018-07-22T11:28:23.487Z,20.20
2018-07-22T11:30:53.675Z,20.35
2018-07-22T11:33:24.321Z,20.47
2018-07-22T11:35:53.685Z,20.55
2018-07-22T11:38:23.877Z,20.61
2018-07-22T11:40:53.803Z,20.62
2018-07-22T11:43:24.087Z,20.69
2018-07-22T11:45:54.308Z,20.87
2018-07-22T11:48:24.389Z,20.93
2018-07-22T11:50:53.796Z,20.95
2018-07-22T11:53:23.905Z,20.93
2018-07-22T11:55:54.153Z,20.79
2018-07-22T11:58:24.085Z,20.68
2018-07-22T12:00:53.799Z,20.52
2018-07-22T12:03:24.211Z,20.31
2018-07-22T12:05:53.893Z,20.18
2018-07-22T12:08:24.146Z,20.05
2018-07-22T12:10:53.990Z,19.94
2018-07-22T12:13:24.396Z,19.86
2018-07-22T12:15:53.977Z,19.81
2018-07-22T12:18:24.212Z,19.77
2018-07-22T12:20:54.017Z,19.76
2018-07-22T12:23:24.025Z,19.66
2018-07-22T12:25:54.158Z,19.56
2018-07-22T12:28:24.138Z,19.54
2018-07-22T12:30:54.437Z,19.47
2018-07-22T12:33:24.128Z,19.50
2018-07-22T12:35:54.353Z,19.55
2018-07-22T12:38:24.108Z,19.59
2018-07-22T12:40:54.280Z,19.68
2018-07-22T12:43:24.281Z,19.71
2018-07-22T12:45:54.559Z,19.64
2018-07-22T12:48:24.096Z,19.68
2018-07-22T12:50:54.621Z,19.78
2018-07-22T12:53:24.337Z,19.87
2018-07-22T12:55:54.581Z,20.00
2018-07-22T12:58:24.232Z,20.07
2018-07-22T13:00:54.420Z,20.08
2018-07-22T13:03:24.435Z,20.14
2018-07-22T13:05:54.337Z,20.22
2018-07-22T13:08:24.620Z,20.30
2018-07-22T13:10:54.524Z,20.28
2018-07-22T13:13:24.646Z,20.28
2018-07-22T13:15:54.710Z,20.25
2018-07-22T13:18:24.529Z,20.15
2018-07-22T13:20:54.767Z,20.16
2018-07-22T13:23:24.705Z,20.09
2018-07-22T13:25:54.452Z,20.21
2018-07-22T13:28:24.486Z,20.23
2018-07-22T13:30:54.651Z,20.23
2018-07-22T13:33:24.584Z,20.16
2018-07-22T13:35:54.776Z,20.21
2018-07-22T13:38:25.242Z,20.09
2018-07-22T13:40:54.695Z,20.15
2018-07-22T13:43:24.891Z,20.03
2018-07-22T13:45:54.562Z,20.10
2018-07-22T13:48:24.881Z,20.14
2018-07-22T13:50:54.715Z,20.25
2018-07-22T13:53:25.057Z,20.44
2018-07-22T13:55:54.656Z,20.49
2018-07-22T13:58:24.856Z,20.67
2018-07-22T14:00:54.796Z,20.76
2018-07-22T14:03:24.814Z,20.86
2018-07-22T14:05:54.803Z,21.07
2018-07-22T14:08:24.796Z,21.20
2018-07-22T14:10:55.121Z,21.40
2018-07-22T14:13:25.144Z,21.53
2018-07-22T14:15:54.821Z,21.56
2018-07-22T14:18:24.756Z,21.62
2018-07-22T14:20:54.984Z,21.73
2018-07-22T14:23:25.210Z,21.75
2018-07-22T14:25:54.952Z,21.64
2018-07-22T14:28:24.881Z,21.47
2018-07-22T14:30:55.082Z,21.35
2018-07-22T14:33:25.378Z,21.31
2018-07-22T14:35:55.052Z,21.32
2018-07-22T14:38:25.197Z,21.24
2018-07-22T14:40:55.132Z,21.28
2018-07-22T14:43:25.502Z,21.35
2018-07-22T14:45:55.463Z,21.39
2018-07-22T14:48:25.348Z,21.43
2018-07-22T14:50:55.110Z,21.53
2018-07-22T14:53:25.616Z,21.55
2018-07-22T14:55:55.134Z,21.61
2018-07-22T14:58:25.322Z,21.60
2018-07-22T15:00:55.398Z,21.61
2018-07-22T15:03:25.586Z,21.52
2018-07-22T15:05:55.560Z,21.49
2018-07-22T15:08:25.339Z,21.47
2018-07-22T15:10:55.499Z,21.38
2018-07-22T15:13:25.576Z,21.33
2018-07-22T15:15:55.518Z,21.30
2018-07-22T15:18:25.358Z,21.26
2018-07-22T15:20:55.539Z,21.24
2018-07-22T15:23:25.604Z,21.23
2018-07-22T15:25:55.716Z,21.25
2018-07-22T15:28:25.589Z,21.25
2018-07-22T15:30:55.975Z,21.28
2018-07-22T15:33:25.750Z,21.28
2018-07-22T15:35:55.664Z,21.23
2018-07-22T15:38:25.536Z,21.23
2018-07-22T15:40:55.620Z,21.24
2018-07-22T15:43:25.943Z,21.19
2018-07-22T15:45:55.693Z,21.28
2018-07-22T15:48:25.854Z,21.25
2018-07-22T15:50:55.978Z,21.22
2018-07-22T15:53:25.999Z,21.22
2018-07-22T15:55:55.862Z,21.27
2018-07-22T15:58:25.962Z,21.26
2018-07-22T16:00:55.800Z,21.15
2018-07-22T16:03:25.698Z,21.23
2018-07-22T16:05:55.873Z,21.24
2018-07-22T16:08:25.963Z,21.29
2018-07-22T16:10:55.891Z,21.29
2018-07-22T16:13:25.993Z,21.28
2018-07-22T16:15:56.033Z,21.21
2018-07-22T16:18:26.436Z,21.20
2018-07-22T16:20:55.994Z,21.19
2018-07-22T16:23:26.128Z,21.23
2018-07-22T16:25:55.959Z,21.23
2018-07-22T16:28:26.139Z,21.19
2018-07-22T16:30:56.059Z,21.10
2018-07-22T16:33:26.114Z,21.07
2018-07-22T16:35:56.108Z,21.00
2018-07-22T16:38:26.192Z,21.01
2018-07-22T16:40:56.431Z,21.03
2018-07-22T16:43:26.393Z,20.95
2018-07-22T16:45:56.293Z,20.88
2018-07-22T16:48:26.596Z,20.86
2018-07-22T16:50:56.140Z,20.88
2018-07-22T16:53:26.448Z,20.82
2018-07-22T16:55:56.574Z,20.80
2018-07-22T16:58:26.385Z,20.79
2018-07-22T17:00:56.512Z,20.78
2018-07-22T17:03:26.738Z,20.73
2018-07-22T17:05:56.477Z,20.66
2018-07-22T17:08:26.546Z,20.55
2018-07-22T17:10:56.398Z,20.48
2018-07-22T17:13:26.616Z,20.41
2018-07-22T17:15:56.347Z,20.35
2018-07-22T17:18:26.886Z,20.32
2018-07-22T17:20:56.763Z,20.26
2018-07-22T17:23:27.072Z,20.26
2018-07-22T17:25:56.664Z,20.24
2018-07-22T17:28:26.893Z,20.22
2018-07-22T17:30:56.883Z,20.20
2018-07-22T17:33:26.578Z,20.19
2018-07-22T17:35:57.125Z,20.13
2018-07-22T17:38:26.828Z,20.09
2018-07-22T17:40:56.926Z,20.07
2018-07-22T17:43:26.678Z,20.04
2018-07-22T17:45:56.873Z,19.97
2018-07-22T17:48:26.857Z,19.92
2018-07-22T17:50:56.732Z,19.92
2018-07-22T17:53:27.554Z,19.91
2018-07-22T17:55:57.278Z,19.87
2018-07-22T17:58:26.798Z,19.83
2018-07-22T18:00:57.200Z,19.82
2018-07-22T18:03:29.298Z,19.82
2018-07-22T18:05:58.538Z,19.82
2018-07-22T18:08:27.983Z,19.84
2018-07-22T18:10:57.466Z,19.84
2018-07-22T18:13:27.443Z,19.83
2018-07-22T18:15:57.113Z,19.81
2018-07-22T18:18:27.233Z,19.76
2018-07-22T18:20:57.221Z,19.74
2018-07-22T18:23:27.570Z,19.73
2018-07-22T18:25:57.279Z,19.72
2018-07-22T18:28:27.198Z,19.68
2018-07-22T18:30:57.318Z,19.66
2018-07-22T18:33:27.408Z,19.60
2018-07-22T18:35:57.323Z,19.56
2018-07-22T18:38:28.143Z,19.56
2018-07-22T18:40:57.742Z,19.52
2018-07-22T18:43:29.652Z,19.51
2018-07-22T18:45:59.340Z,19.48
2018-07-22T18:48:29.271Z,19.47
2018-07-22T18:50:59.092Z,19.42
2018-07-22T18:53:28.690Z,19.40
2018-07-22T18:56:00.108Z,19.38
2018-07-22T18:58:31.880Z,19.36
2018-07-22T19:01:02.137Z,19.34
2018-07-22T19:03:31.589Z,19.30
2018-07-22T19:06:01.698Z,19.29
2018-07-22T19:08:32.408Z,19.26
2018-07-22T19:11:02.953Z,19.26
2018-07-22T19:13:33.028Z,19.23
2018-07-22T19:16:03.597Z,19.21
2018-07-22T19:18:34.163Z,19.19
2018-07-22T19:21:03.906Z,19.17
2018-07-22T19:23:34.831Z,19.14
2018-07-22T19:26:04.617Z,19.13
2018-07-22T19:28:35.445Z,19.11
2018-07-22T19:31:05.555Z,19.11
2018-07-22T19:33:35.623Z,19.08
2018-07-22T19:36:05.853Z,19.09
2018-07-22T19:38:36.143Z,19.08
2018-07-22T19:41:06.463Z,19.06
2018-07-22T19:43:36.676Z,19.04
2018-07-22T19:46:07.004Z,19.02
2018-07-22T19:48:37.513Z,19.01
2018-07-22T19:51:07.645Z,18.99
2018-07-22T19:53:37.872Z,18.98
2018-07-22T19:56:07.649Z,18.96
2018-07-22T19:58:38.508Z,18.94
2018-07-22T20:01:08.812Z,18.92
2018-07-22T20:03:39.685Z,18.91
2018-07-22T20:06:09.734Z,18.89
2018-07-22T20:08:39.878Z,18.87
2018-07-22T20:11:10.025Z,18.86
2018-07-22T20:13:39.881Z,18.85
2018-07-22T20:16:09.628Z,18.83
2018-07-22T20:18:38.989Z,18.80
2018-07-22T20:21:08.857Z,18.76
2018-07-22T20:23:38.324Z,18.74
2018-07-22T20:26:07.622Z,18.73
2018-07-22T20:28:37.005Z,18.72
2018-07-22T20:31:06.741Z,18.69
2018-07-22T20:33:35.835Z,18.69
2018-07-22T20:36:05.032Z,18.69
2018-07-22T20:38:34.196Z,18.68
2018-07-22T20:41:03.778Z,18.67
2018-07-22T20:43:32.916Z,18.64
2018-07-22T20:46:02.204Z,18.63
2018-07-22T20:48:31.355Z,18.64
2018-07-22T20:51:01.052Z,18.63
2018-07-22T20:53:30.543Z,18.63
2018-07-22T20:56:00.075Z,18.56
2018-07-22T20:58:30.322Z,18.61
2018-07-22T21:00:59.863Z,18.61
2018-07-22T21:03:29.347Z,18.59
2018-07-22T21:05:58.912Z,18.58
2018-07-22T21:08:28.964Z,18.57
2018-07-22T21:10:58.987Z,18.55
2018-07-22T21:13:29.202Z,18.54
2018-07-22T21:15:59.040Z,18.54
2018-07-22T21:18:29.341Z,18.53
2018-07-22T21:20:59.394Z,18.53
2018-07-22T21:23:29.665Z,18.53
2018-07-22T21:25:59.636Z,18.52
2018-07-22T21:28:29.462Z,18.52
2018-07-22T21:30:59.445Z,18.51
2018-07-22T21:33:29.734Z,18.50
2018-07-22T21:35:59.286Z,18.50
2018-07-22T21:38:29.527Z,18.47
2018-07-22T21:40:59.405Z,18.45
2018-07-22T21:43:29.823Z,18.44
2018-07-22T21:45:59.719Z,18.44
2018-07-22T21:48:29.521Z,18.44
2018-07-22T21:50:59.445Z,18.43
2018-07-22T21:53:29.891Z,18.43
2018-07-22T21:55:59.715Z,18.41
2018-07-22T21:58:29.563Z,18.38
2018-07-22T22:00:59.958Z,18.38
2018-07-22T22:03:29.618Z,18.36
2018-07-22T22:05:59.757Z,18.37
2018-07-22T22:08:29.608Z,18.36
2018-07-22T22:11:00.138Z,18.36
2018-07-22T22:13:29.694Z,18.36
2018-07-22T22:15:59.751Z,18.37
2018-07-22T22:18:29.909Z,18.37
2018-07-22T22:20:59.794Z,18.35
2018-07-22T22:23:30.117Z,18.35
2018-07-22T22:26:00.012Z,18.35
2018-07-22T22:28:30.026Z,18.35
2018-07-22T22:30:59.923Z,18.32
2018-07-22T22:33:30.185Z,18.30
2018-07-22T22:36:00.000Z,18.29
2018-07-22T22:38:30.329Z,18.26
2018-07-22T22:41:00.373Z,18.25
2018-07-22T22:43:30.261Z,18.24
2018-07-22T22:46:00.184Z,18.24
2018-07-22T22:48:30.423Z,18.23
2018-07-22T22:51:00.528Z,18.22
2018-07-22T22:53:30.341Z,18.20
2018-07-22T22:56:00.893Z,18.17
2018-07-22T22:58:41.214Z,18.15
2018-07-22T23:01:10.320Z,18.15
2018-07-22T23:03:39.790Z,18.13
2018-07-22T23:06:08.886Z,18.15
2018-07-22T23:08:38.014Z,18.13
2018-07-22T23:11:07.510Z,18.14
2018-07-22T23:13:36.575Z,18.15
2018-07-22T23:16:06.129Z,18.15
2018-07-22T23:18:35.216Z,18.16
2018-07-22T23:21:05.148Z,18.13
2018-07-22T23:23:34.643Z,18.10
2018-07-22T23:26:03.719Z,18.09
2018-07-22T23:28:32.785Z,18.11
2018-07-22T23:31:02.295Z,18.10
2018-07-22T23:33:31.748Z,18.10
2018-07-22T23:36:01.042Z,18.10
2018-07-22T23:38:30.881Z,18.09
2018-07-22T23:41:00.729Z,18.10
2018-07-22T23:43:30.741Z,18.10
2018-07-22T23:46:00.954Z,18.11
2018-07-22T23:48:30.939Z,18.12
2018-07-22T23:51:01.225Z,18.14
2018-07-22T23:53:31.166Z,18.12
2018-07-22T23:56:01.138Z,18.10
2018-07-22T23:58:31.404Z,18.08
